createdAt,value
2018-09-19T00:02:11.672Z,20.10
2018-09-19T00:04:40.228Z,20.10
2018-09-19T00:07:08.785Z,20.10
2018-09-19T00:09:36.443Z,20.10
2018-09-19T00:12:04.145Z,20.10
2018-09-19T00:14:31.812Z,20.20
2018-09-19T00:16:59.476Z,20.10
2018-09-19T00:19:28.012Z,20.10
2018-09-19T00:21:55.709Z,20.10
2018-09-19T00:24:24.399Z,20.10
2018-09-19T00:26:52.076Z,20.10
2018-09-19T00:29:20.903Z,20.10
2018-09-19T00:31:50.622Z,20.10
2018-09-19T00:34:19.888Z,20.10
2018-09-19T00:36:49.162Z,20.10
2018-09-19T00:39:17.886Z,20.10
2018-09-19T00:41:45.556Z,20.10
2018-09-19T00:44:14.221Z,20.10
2018-09-19T00:46:41.930Z,20.10
2018-09-19T00:49:09.628Z,20.10
2018-09-19T00:51:38.248Z,20.10
2018-09-19T00:54:07.617Z,20.10
2018-09-19T00:56:37.514Z,20.10
2018-09-19T00:59:05.208Z,20.10
2018-09-19T01:01:34.060Z,20.10
2018-09-19T01:04:02.733Z,20.10
2018-09-19T01:06:30.521Z,20.10
2018-09-19T01:08:59.132Z,20.10
2018-09-19T01:11:26.832Z,20.00
2018-09-19T01:13:55.377Z,20.10
2018-09-19T01:16:23.941Z,20.10
2018-09-19T01:18:51.620Z,20.10
2018-09-19T01:21:21.105Z,20.10
2018-09-19T01:23:49.767Z,20.00
2018-09-19T01:26:19.040Z,20.10
2018-09-19T01:28:47.778Z,20.00
2018-09-19T01:31:15.435Z,20.00
2018-09-19T01:33:44.182Z,20.00
2018-09-19T01:36:12.878Z,20.10
2018-09-19T01:38:41.561Z,20.00
2018-09-19T01:41:09.232Z,20.00
2018-09-19T01:43:37.770Z,20.00
2018-09-19T01:46:06.233Z,20.00
2018-09-19T01:48:34.784Z,20.00
2018-09-19T01:51:02.444Z,20.00
2018-09-19T01:53:30.998Z,20.00
2018-09-19T01:56:00.333Z,20.00
2018-09-19T01:58:29.189Z,20.00
2018-09-19T02:00:56.863Z,20.00
2018-09-19T02:03:25.604Z,20.10
2018-09-19T02:05:54.288Z,20.00
2018-09-19T02:08:22.737Z,20.00
2018-09-19T02:10:52.028Z,20.00
2018-09-19T02:13:20.776Z,20.00
2018-09-19T02:15:49.074Z,20.10
2018-09-19T02:18:17.757Z,20.00
2018-09-19T02:20:45.428Z,20.00
2018-09-19T02:23:14.135Z,20.00
2018-09-19T02:25:42.848Z,20.00
2018-09-19T02:28:10.516Z,20.00
2018-09-19T02:30:38.229Z,20.00
2018-09-19T02:33:06.840Z,20.00
2018-09-19T02:35:34.608Z,20.00
2018-09-19T02:38:02.256Z,20.00
2018-09-19T02:40:30.927Z,20.00
2018-09-19T02:42:58.587Z,20.00
2018-09-19T02:45:26.262Z,20.00
2018-09-19T02:47:53.932Z,20.00
2018-09-19T02:50:21.640Z,20.00
2018-09-19T02:52:56.324Z,20.00
2018-09-19T02:55:24.948Z,20.00
2018-09-19T02:57:52.664Z,20.00
2018-09-19T03:00:20.368Z,20.00
2018-09-19T03:02:48.050Z,20.00
2018-09-19T03:05:15.714Z,20.00
2018-09-19T03:07:43.608Z,20.00
2018-09-19T03:10:11.324Z,20.00
2018-09-19T03:12:39.007Z,20.00
2018-09-19T03:15:07.784Z,20.00
2018-09-19T03:17:36.468Z,20.00
2018-09-19T03:20:04.069Z,20.00
2018-09-19T03:22:31.777Z,20.00
2018-09-19T03:24:59.628Z,20.00
2018-09-19T03:27:27.305Z,20.00
2018-09-19T03:29:55.864Z,20.00
2018-09-19T03:32:24.433Z,20.00
2018-09-19T03:34:52.108Z,20.00
2018-09-19T03:37:20.688Z,19.90
2018-09-19T03:39:49.046Z,20.00
2018-09-19T03:42:17.740Z,20.00
2018-09-19T03:44:46.535Z,20.00
2018-09-19T03:47:14.652Z,20.00
2018-09-19T03:49:43.215Z,20.00
2018-09-19T03:52:11.786Z,20.00
2018-09-19T03:54:40.384Z,20.00
2018-09-19T03:57:09.053Z,20.00
2018-09-19T03:59:37.780Z,20.00
2018-09-19T04:02:06.241Z,20.00
2018-09-19T04:04:34.939Z,20.00
2018-09-19T04:07:02.614Z,20.00
2018-09-19T04:09:30.292Z,20.00
2018-09-19T04:11:57.969Z,19.90
2018-09-19T04:14:25.659Z,20.00
2018-09-19T04:16:53.332Z,20.00
2018-09-19T04:19:22.003Z,20.00
2018-09-19T04:21:53.163Z,20.00
2018-09-19T04:24:21.893Z,20.00
2018-09-19T04:26:52.047Z,20.00
2018-09-19T04:29:20.855Z,20.00
2018-09-19T04:31:49.960Z,20.00
2018-09-19T04:34:18.765Z,20.00
2018-09-19T04:36:46.443Z,19.90
2018-09-19T04:39:14.492Z,20.00
2018-09-19T04:41:43.184Z,19.90
2018-09-19T04:44:11.898Z,19.90
2018-09-19T04:46:40.636Z,20.00
2018-09-19T04:49:09.677Z,20.00
2018-09-19T04:51:39.229Z,20.00
2018-09-19T04:54:07.295Z,19.90
2018-09-19T04:56:36.253Z,20.00
2018-09-19T04:59:03.968Z,20.00
2018-09-19T05:01:31.729Z,20.10
2018-09-19T05:04:00.425Z,20.20
2018-09-19T05:06:28.983Z,20.40
2018-09-19T05:08:57.732Z,20.40
2018-09-19T05:11:25.509Z,20.50
2018-09-19T05:13:54.468Z,20.50
2018-09-19T05:16:23.172Z,20.60
2018-09-19T05:18:51.081Z,20.60
2018-09-19T05:21:20.242Z,20.60
2018-09-19T05:23:49.996Z,20.60
2018-09-19T05:26:19.367Z,20.60
2018-09-19T05:28:48.050Z,20.60
2018-09-19T05:31:15.864Z,20.60
2018-09-19T05:33:44.638Z,20.60
2018-09-19T05:36:12.450Z,20.60
2018-09-19T05:38:40.131Z,20.60
2018-09-19T05:41:09.377Z,20.60
2018-09-19T05:43:37.725Z,20.50
2018-09-19T05:46:05.632Z,20.50
2018-09-19T05:48:33.496Z,20.50
2018-09-19T05:51:02.086Z,20.50
2018-09-19T05:53:29.843Z,20.50
2018-09-19T05:55:57.536Z,20.50
2018-09-19T05:58:26.466Z,20.50
2018-09-19T06:00:54.174Z,20.50
2018-09-19T06:03:21.935Z,20.50
2018-09-19T06:05:52.008Z,20.50
2018-09-19T06:08:20.360Z,20.50
2018-09-19T06:10:48.032Z,20.60
2018-09-19T06:13:16.718Z,20.60
2018-09-19T06:15:44.423Z,20.60
2018-09-19T06:18:12.106Z,20.60
2018-09-19T06:20:39.965Z,20.60
2018-09-19T06:23:08.624Z,20.60
2018-09-19T06:25:37.324Z,20.60
2018-09-19T06:28:05.942Z,20.60
2018-09-19T06:30:33.612Z,20.60
2018-09-19T06:33:03.636Z,20.60
2018-09-19T06:35:31.331Z,20.50
2018-09-19T06:37:58.996Z,20.50
2018-09-19T06:40:27.817Z,20.50
2018-09-19T06:42:55.485Z,20.50
2018-09-19T06:45:23.171Z,20.50
2018-09-19T06:47:51.716Z,20.50
2018-09-19T06:50:20.053Z,20.50
2018-09-19T06:52:49.155Z,20.50
2018-09-19T06:55:16.816Z,20.50
2018-09-19T06:57:45.564Z,20.50
2018-09-19T07:00:14.272Z,20.50
2018-09-19T07:02:42.837Z,20.50
2018-09-19T07:05:11.752Z,20.50
2018-09-19T07:07:40.309Z,20.50
2018-09-19T07:10:08.033Z,20.50
2018-09-19T07:12:35.705Z,20.50
2018-09-19T07:15:04.508Z,20.50
2018-09-19T07:17:33.313Z,20.40
2018-09-19T07:20:03.261Z,20.40
2018-09-19T07:22:33.407Z,20.40
2018-09-19T07:25:01.836Z,20.40
2018-09-19T07:27:29.520Z,20.40
2018-09-19T07:29:57.235Z,20.40
2018-09-19T07:32:25.812Z,20.40
2018-09-19T07:34:53.612Z,20.40
2018-09-19T07:37:22.221Z,20.40
2018-09-19T07:39:51.135Z,20.40
2018-09-19T07:42:20.603Z,20.40
2018-09-19T07:44:48.304Z,20.40
2018-09-19T07:47:17.008Z,20.50
2018-09-19T07:49:44.988Z,20.50
2018-09-19T07:52:13.679Z,20.50
2018-09-19T07:54:42.545Z,20.50
2018-09-19T07:57:10.289Z,20.50
2018-09-19T07:59:39.091Z,20.50
2018-09-19T08:02:06.816Z,20.50
2018-09-19T08:04:35.380Z,20.50
2018-09-19T08:07:04.317Z,20.50
2018-09-19T08:09:34.596Z,20.50
2018-09-19T08:12:03.310Z,20.50
2018-09-19T08:14:32.528Z,20.50
2018-09-19T08:17:02.352Z,20.50
2018-09-19T08:19:30.120Z,20.50
2018-09-19T08:21:58.689Z,20.50
2018-09-19T08:24:26.427Z,20.50
2018-09-19T08:26:54.232Z,20.50
2018-09-19T08:29:21.945Z,20.50
2018-09-19T08:31:50.162Z,20.50
2018-09-19T08:34:17.924Z,20.50
2018-09-19T08:36:46.616Z,20.50
2018-09-19T08:39:16.004Z,20.50
2018-09-19T08:41:43.761Z,20.50
2018-09-19T08:44:12.475Z,20.50
2018-09-19T08:46:41.167Z,20.50
2018-09-19T08:49:08.839Z,20.50
2018-09-19T08:51:37.544Z,20.50
2018-09-19T08:54:06.310Z,20.50
2018-09-19T08:56:34.936Z,20.50
2018-09-19T08:59:03.628Z,20.50
2018-09-19T09:01:33.191Z,20.50
2018-09-19T09:04:02.925Z,20.50
2018-09-19T09:06:32.628Z,20.50
2018-09-19T09:09:01.273Z,20.50
2018-09-19T09:11:29.020Z,20.50
2018-09-19T09:13:57.633Z,20.50
2018-09-19T09:16:26.328Z,20.50
2018-09-19T09:18:55.053Z,20.50
2018-09-19T09:21:23.729Z,20.50
2018-09-19T09:23:52.713Z,20.50
2018-09-19T09:26:21.336Z,20.50
2018-09-19T09:28:50.132Z,20.50
2018-09-19T09:31:19.532Z,20.50
2018-09-19T09:33:47.331Z,20.50
2018-09-19T09:36:15.083Z,20.50
2018-09-19T09:38:42.877Z,20.50
2018-09-19T09:41:10.617Z,20.50
2018-09-19T09:43:38.515Z,20.50
2018-09-19T09:46:06.236Z,20.50
2018-09-19T09:48:34.059Z,20.50
2018-09-19T09:51:02.738Z,20.50
2018-09-19T09:55:58.161Z,20.50
2018-09-19T09:58:26.009Z,20.50
2018-09-19T10:00:54.728Z,20.50
2018-09-19T10:03:23.504Z,20.50
2018-09-19T10:05:51.413Z,20.50
2018-09-19T10:08:19.991Z,20.50
2018-09-19T10:10:47.802Z,20.50
2018-09-19T10:13:15.498Z,20.50
2018-09-19T10:15:43.159Z,20.50
2018-09-19T10:18:10.866Z,20.50
2018-09-19T10:20:39.547Z,20.50
2018-09-19T10:23:07.243Z,20.50
2018-09-19T10:25:34.935Z,20.50
2018-09-19T10:28:03.552Z,20.50
2018-09-19T10:30:32.321Z,20.50
2018-09-19T10:33:02.325Z,20.50
2018-09-19T10:35:30.144Z,20.50
2018-09-19T10:37:57.948Z,20.50
2018-09-19T10:40:25.812Z,20.50
2018-09-19T10:42:53.528Z,20.50
2018-09-19T10:45:21.741Z,20.40
2018-09-19T10:47:50.330Z,20.50
2018-09-19T10:50:18.008Z,20.50
2018-09-19T10:52:45.691Z,20.50
2018-09-19T10:55:13.379Z,20.50
2018-09-19T10:57:41.062Z,20.50
2018-09-19T11:00:08.763Z,20.50
2018-09-19T11:02:36.601Z,20.50
2018-09-19T11:05:04.304Z,20.40
2018-09-19T11:07:32.920Z,20.40
2018-09-19T11:10:02.636Z,20.50
2018-09-19T11:12:30.352Z,20.40
2018-09-19T11:14:58.016Z,20.50
2018-09-19T11:17:25.700Z,20.40
2018-09-19T11:19:53.531Z,20.40
2018-09-19T11:22:21.548Z,20.50
2018-09-19T11:24:49.776Z,20.50
2018-09-19T11:27:17.483Z,20.40
2018-09-19T11:29:45.173Z,20.40
2018-09-19T11:32:12.868Z,20.40
2018-09-19T11:34:40.884Z,20.40
2018-09-19T11:37:08.581Z,20.40
2018-09-19T11:39:36.243Z,20.50
2018-09-19T11:42:04.128Z,20.50
2018-09-19T11:44:33.136Z,20.50
2018-09-19T11:47:00.807Z,20.50
2018-09-19T11:49:28.488Z,20.50
2018-09-19T11:51:56.169Z,20.50
2018-09-19T11:54:23.841Z,20.50
2018-09-19T11:56:51.716Z,20.50
2018-09-19T11:59:20.085Z,20.50
2018-09-19T12:01:47.826Z,20.50
2018-09-19T12:04:15.505Z,20.50
2018-09-19T12:06:43.204Z,20.50
2018-09-19T12:09:12.417Z,20.50
2018-09-19T12:11:40.418Z,20.50
2018-09-19T12:14:08.363Z,20.50
2018-09-19T12:16:36.501Z,20.50
2018-09-19T12:19:04.184Z,20.50
2018-09-19T12:21:32.964Z,20.50
2018-09-19T12:24:00.634Z,20.50
2018-09-19T12:26:28.349Z,20.50
2018-09-19T12:28:56.042Z,20.50
2018-09-19T12:31:23.732Z,20.50
2018-09-19T12:33:51.916Z,20.50
2018-09-19T12:36:20.509Z,20.50
2018-09-19T12:38:48.187Z,20.50
2018-09-19T12:41:15.956Z,20.40
2018-09-19T12:43:43.646Z,20.40
2018-09-19T12:46:11.321Z,20.50
2018-09-19T12:48:38.986Z,20.40
2018-09-19T12:51:06.663Z,20.40
2018-09-19T12:53:34.331Z,20.40
2018-09-19T12:56:03.453Z,20.40
2018-09-19T12:58:31.869Z,20.40
2018-09-19T13:00:59.539Z,20.40
2018-09-19T13:03:27.260Z,20.40
2018-09-19T13:05:54.965Z,20.40
2018-09-19T13:08:22.644Z,20.40
2018-09-19T13:10:51.353Z,20.40
2018-09-19T13:13:20.473Z,20.40
2018-09-19T13:15:48.187Z,20.40
2018-09-19T13:18:15.944Z,20.40
2018-09-19T13:20:43.616Z,20.40
2018-09-19T13:23:11.304Z,20.40
2018-09-19T13:25:38.968Z,20.40
2018-09-19T13:28:06.768Z,20.40
2018-09-19T13:30:34.449Z,20.40
2018-09-19T13:33:03.204Z,20.40
2018-09-19T13:35:32.093Z,20.40
2018-09-19T13:37:59.891Z,20.40
2018-09-19T13:40:27.565Z,20.40
2018-09-19T13:42:55.239Z,20.40
2018-09-19T13:45:23.091Z,20.40
2018-09-19T13:47:50.790Z,20.40
2018-09-19T13:50:23.985Z,20.40
2018-09-19T13:52:51.647Z,20.40
2018-09-19T13:55:21.635Z,20.40
2018-09-19T13:57:50.979Z,20.40
2018-09-19T14:00:20.190Z,20.40
2018-09-19T14:02:49.417Z,20.40
2018-09-19T14:05:17.144Z,20.40
2018-09-19T14:07:45.683Z,20.40
2018-09-19T14:10:14.260Z,20.40
2018-09-19T14:12:42.845Z,20.40
2018-09-19T14:15:11.529Z,20.40
2018-09-19T14:17:40.208Z,20.40
2018-09-19T14:20:08.781Z,20.40
2018-09-19T14:22:37.333Z,20.40
2018-09-19T14:25:06.035Z,20.40
2018-09-19T14:27:34.727Z,20.40
2018-09-19T14:30:03.388Z,20.40
2018-09-19T14:32:32.889Z,20.40
2018-09-19T14:35:02.596Z,20.40
2018-09-19T14:37:32.767Z,20.40
2018-09-19T14:40:02.465Z,20.40
2018-09-19T14:42:32.932Z,20.40
2018-09-19T14:45:02.387Z,20.40
2018-09-19T14:47:30.089Z,20.40
2018-09-19T14:49:58.686Z,20.30
2018-09-19T14:52:27.379Z,20.30
2018-09-19T14:54:55.069Z,20.40
2018-09-19T14:57:22.802Z,20.40
2018-09-19T14:59:51.517Z,20.40
2018-09-19T15:02:20.285Z,20.50
2018-09-19T15:04:49.508Z,20.40
2018-09-19T15:07:17.284Z,20.50
2018-09-19T15:09:45.859Z,20.40
2018-09-19T15:12:13.532Z,20.50
2018-09-19T15:14:42.092Z,20.50
2018-09-19T15:17:09.771Z,20.50
2018-09-19T15:19:38.472Z,20.50
2018-09-19T15:22:06.172Z,20.40
2018-09-19T15:24:33.852Z,20.40
2018-09-19T15:27:02.183Z,20.40
2018-09-19T15:29:30.724Z,20.40
2018-09-19T15:31:59.442Z,20.40
2018-09-19T15:34:27.991Z,20.40
2018-09-19T15:36:56.675Z,20.40
2018-09-19T15:39:24.336Z,20.50
2018-09-19T15:41:53.036Z,20.60
2018-09-19T15:44:21.792Z,20.80
2018-09-19T15:46:49.461Z,20.90
2018-09-19T15:49:20.248Z,20.90
2018-09-19T15:51:49.587Z,21.00
2018-09-19T15:54:18.167Z,21.00
2018-09-19T15:56:45.840Z,21.00
2018-09-19T15:59:14.512Z,21.00
2018-09-19T16:01:42.179Z,21.00
2018-09-19T16:04:09.949Z,20.90
2018-09-19T16:06:37.681Z,20.90
2018-09-19T16:09:06.437Z,20.90
2018-09-19T16:11:34.117Z,20.90
2018-09-19T16:14:03.044Z,20.90
2018-09-19T16:16:30.808Z,20.90
2018-09-19T16:18:58.528Z,20.90
2018-09-19T16:21:26.236Z,20.90
2018-09-19T16:23:54.000Z,20.90
2018-09-19T16:26:22.574Z,20.90
2018-09-19T16:28:51.322Z,20.90
2018-09-19T16:31:20.032Z,20.90
2018-09-19T16:33:48.720Z,20.90
2018-09-19T16:36:17.404Z,20.90
2018-09-19T16:38:46.004Z,20.90
2018-09-19T16:41:14.732Z,20.90
2018-09-19T16:43:43.416Z,20.90
2018-09-19T16:46:12.134Z,20.90
2018-09-19T16:48:40.884Z,20.90
2018-09-19T16:51:09.552Z,20.90
2018-09-19T16:53:37.294Z,20.90
2018-09-19T16:56:04.967Z,20.90
2018-09-19T16:58:33.670Z,20.90
2018-09-19T17:01:02.353Z,20.90
2018-09-19T17:03:32.205Z,20.90
2018-09-19T17:06:00.619Z,20.80
2018-09-19T17:08:28.297Z,20.80
2018-09-19T17:10:56.910Z,20.80
2018-09-19T17:13:24.576Z,20.80
2018-09-19T17:15:52.267Z,20.80
2018-09-19T17:18:21.735Z,20.80
2018-09-19T17:20:50.320Z,20.80
2018-09-19T17:23:18.002Z,20.80
2018-09-19T17:25:45.732Z,20.80
2018-09-19T17:28:13.396Z,20.80
2018-09-19T17:30:41.091Z,20.80
2018-09-19T17:33:08.797Z,20.80
2018-09-19T17:35:36.477Z,20.80
2018-09-19T17:38:04.155Z,20.80
2018-09-19T17:40:33.189Z,20.80
2018-09-19T17:43:02.852Z,20.80
2018-09-19T17:45:30.549Z,20.80
2018-09-19T17:47:58.244Z,20.70
2018-09-19T17:50:26.941Z,20.70
2018-09-19T17:52:54.605Z,20.70
2018-09-19T17:55:22.268Z,20.70
2018-09-19T17:57:50.444Z,20.70
2018-09-19T18:00:20.433Z,20.70
2018-09-19T18:02:48.121Z,20.70
2018-09-19T18:05:15.840Z,20.70
2018-09-19T18:07:43.548Z,20.70
2018-09-19T18:10:11.507Z,20.70
2018-09-19T18:12:39.208Z,20.70
2018-09-19T18:15:08.649Z,20.70
2018-09-19T18:17:36.556Z,20.70
2018-09-19T18:20:05.285Z,20.70
2018-09-19T18:22:33.512Z,20.70
2018-09-19T18:25:01.654Z,20.70
2018-09-19T18:27:29.392Z,20.70
2018-09-19T18:29:58.432Z,20.70
2018-09-19T18:32:27.404Z,20.70
2018-09-19T18:34:55.092Z,20.70
2018-09-19T18:37:22.851Z,20.70
2018-09-19T18:39:51.579Z,20.70
2018-09-19T18:42:21.496Z,20.60
2018-09-19T18:44:50.814Z,20.60
2018-09-19T18:47:19.568Z,20.60
2018-09-19T18:49:48.266Z,20.60
2018-09-19T18:52:17.001Z,20.60
2018-09-19T18:54:45.553Z,20.60
2018-09-19T18:57:13.369Z,20.60
2018-09-19T18:59:41.752Z,20.60
2018-09-19T19:02:10.554Z,20.60
2018-09-19T19:04:38.219Z,20.60
2018-09-19T19:07:05.957Z,20.60
2018-09-19T19:09:33.667Z,20.60
2018-09-19T19:12:03.462Z,20.60
2018-09-19T19:14:32.231Z,20.60
2018-09-19T19:17:02.283Z,20.60
2018-09-19T19:19:30.124Z,20.60
2018-09-19T19:21:57.897Z,20.60
2018-09-19T19:24:25.618Z,20.60
2018-09-19T19:26:53.307Z,20.60
2018-09-19T19:29:21.048Z,20.50
2018-09-19T19:31:50.516Z,20.50
2018-09-19T19:34:18.230Z,20.50
2018-09-19T19:36:45.906Z,20.50
2018-09-19T19:39:13.634Z,20.50
2018-09-19T19:41:41.529Z,20.60
2018-09-19T19:44:09.227Z,20.50
2018-09-19T19:46:37.999Z,20.50
2018-09-19T19:49:06.602Z,20.50
2018-09-19T19:51:34.536Z,20.50
2018-09-19T19:54:03.282Z,20.50
2018-09-19T19:56:31.610Z,20.50
2018-09-19T19:58:59.334Z,20.50
2018-09-19T20:01:27.026Z,20.50
2018-09-19T20:03:55.763Z,20.50
2018-09-19T20:06:23.468Z,20.50
2018-09-19T20:08:51.866Z,20.50
2018-09-19T20:11:19.776Z,20.50
2018-09-19T20:13:47.637Z,20.50
2018-09-19T20:16:15.310Z,20.50
2018-09-19T20:18:43.920Z,20.50
2018-09-19T20:21:12.601Z,20.50
2018-09-19T20:23:41.188Z,20.50
2018-09-19T20:26:08.867Z,20.50
2018-09-19T20:28:37.468Z,20.50
2018-09-19T20:31:05.151Z,20.50
2018-09-19T20:33:33.978Z,20.50
2018-09-19T20:36:03.363Z,20.50
2018-09-19T20:38:32.127Z,20.50
2018-09-19T20:40:59.825Z,20.50
2018-09-19T20:43:28.528Z,20.40
2018-09-19T20:45:56.252Z,20.40
2018-09-19T20:48:23.912Z,20.40
2018-09-19T20:50:51.832Z,20.40
2018-09-19T20:53:21.425Z,20.40
2018-09-19T20:55:50.596Z,20.40
2018-09-19T20:58:19.768Z,20.40
2018-09-19T21:00:47.831Z,20.50
2018-09-19T21:03:15.511Z,20.40
2018-09-19T21:05:44.120Z,20.40
2018-09-19T21:08:11.801Z,20.40
2018-09-19T21:10:39.621Z,20.40
2018-09-19T21:13:08.324Z,20.40
2018-09-19T21:15:36.085Z,20.40
2018-09-19T21:18:08.492Z,20.40
2018-09-19T21:20:36.264Z,20.40
2018-09-19T21:23:04.986Z,20.40
2018-09-19T21:25:33.605Z,20.40
2018-09-19T21:28:04.591Z,20.40
2018-09-19T21:30:33.229Z,20.40
2018-09-19T21:33:02.216Z,20.40
2018-09-19T21:35:30.861Z,20.40
2018-09-19T21:37:59.615Z,20.40
2018-09-19T21:40:27.370Z,20.40
2018-09-19T21:42:55.972Z,20.40
2018-09-19T21:45:23.636Z,20.40
2018-09-19T21:47:51.461Z,20.40
2018-09-19T21:50:19.829Z,20.40
2018-09-19T21:52:54.423Z,20.40
2018-09-19T21:55:22.089Z,20.40
2018-09-19T21:57:51.784Z,20.30
2018-09-19T22:00:21.324Z,20.30
2018-09-19T22:02:50.647Z,20.40
2018-09-19T22:05:18.424Z,20.40
2018-09-19T22:07:46.117Z,20.40
2018-09-19T22:10:13.817Z,20.40
2018-09-19T22:12:41.495Z,20.30
2018-09-19T22:15:09.186Z,20.30
2018-09-19T22:17:36.855Z,20.30
2018-09-19T22:20:04.689Z,20.30
2018-09-19T22:22:33.119Z,20.40
2018-09-19T22:25:00.895Z,20.30
2018-09-19T22:27:28.815Z,20.30
2018-09-19T22:29:56.573Z,20.30
2018-09-19T22:32:24.428Z,20.30
2018-09-19T22:34:52.576Z,20.30
2018-09-19T22:37:21.385Z,20.30
2018-09-19T22:39:49.817Z,20.30
2018-09-19T22:42:17.496Z,20.30
2018-09-19T22:44:45.160Z,20.30
2018-09-19T22:47:12.824Z,20.30
2018-09-19T22:49:40.558Z,20.30
2018-09-19T22:52:08.263Z,20.30
2018-09-19T22:54:35.937Z,20.30
2018-09-19T22:57:04.220Z,20.30
2018-09-19T22:59:33.185Z,20.30
2018-09-19T23:02:00.914Z,20.30
2018-09-19T23:04:28.597Z,20.30
2018-09-19T23:06:56.288Z,20.30
2018-09-19T23:09:23.976Z,20.30
2018-09-19T23:11:51.666Z,20.30
2018-09-19T23:14:19.793Z,20.30
2018-09-19T23:16:47.548Z,20.30
2018-09-19T23:19:15.268Z,20.30
2018-09-19T23:21:43.112Z,20.30
2018-09-19T23:24:11.884Z,20.30
2018-09-19T23:26:39.560Z,20.30
2018-09-19T23:29:07.243Z,20.30
2018-09-19T23:31:34.906Z,20.30
2018-09-19T23:34:03.564Z,20.30
2018-09-19T23:36:33.563Z,20.30
2018-09-19T23:39:03.749Z,20.30
2018-09-19T23:41:33.036Z,20.30
2018-09-19T23:44:03.051Z,20.30
2018-09-19T23:46:30.728Z,20.30
2018-09-19T23:48:58.440Z,20.30
2018-09-19T23:51:26.108Z,20.30
2018-09-19T23:53:54.861Z,20.30
2018-09-19T23:56:23.529Z,20.30
2018-09-19T23:58:52.103Z,20.30
